• Join FlightAware (Why Join?)
  • Login
  • US Flag 
05:33AM EDT


 

Airport Tracker/Info


-or-


 

Live Flight TrackerFlight Track Log ✈ SKW5606 ✈ 15-Apr-2013 ✈ KHPN - KORD

Flight Track Log - Related Links

Times and Time Zones

All times are in EDT time to prevent confusion due to time zone crossing. See the SKW5606 flight status page for this flight to view local times or setup timezone preferences in your user account.

Time Position Orientation Groundspeed Altitude Reporting Facility
EDT Latitude Longitude Course Direction KTS MPH feet Rate Location/Type
12:20PM 41.0500 -73.7000 275° West 163 188 1,200  Level New York TRACON
12:21PM 41.0333 -73.7333 236° Southwest 197 227 3,700 2,340 Climbing New York TRACON
12:22PM 41.0833 -73.7667 333° Northwest 245 282 5,900 2,160 Climbing New York TRACON
12:23PM 41.0968 -74.1842 275° West  Level FlightAware Approximate
12:23PM 41.1167 -73.8500 298° West 257 296 8,100  Level New York TRACON
12:24PM 41.1053 -74.3066 275° West  Level FlightAware Approximate
12:24PM 41.1406 -73.9175 295° West 271 312 9,600  Level New York Center
12:24PM 41.1772 -74.0211 295° West 283 326 12,000 2,040 Climbing New York Center
12:25PM 41.1140 -74.4290 275° West  Level FlightAware Approximate
12:25PM 41.1958 -74.1047 287° West 307 353 13,600  Level New York Center
12:26PM 41.1836 -74.2364 263° West 316 364 14,800 1,200 Climbing New York Center
12:28PM 41.1739 -74.3517 264° West 353 406 16,100 1,620 Climbing New York Center
12:29PM 41.1592 -74.4969 262° West 364 419 18,100 1,440 Climbing New York Center
12:30PM 41.1761 -74.6108 281° West 356 410 19,000 1,200 Climbing New York Center
12:31PM 41.2197 -74.7431 294° West 361 415 20,600 1,320 Climbing New York Center
12:31PM 41.2636 -74.8642 296° West 366 421 21,700 1,140 Climbing New York Center
12:32PM 41.3094 -74.9775 298° West 371 427 22,900 1,080 Climbing New York Center
12:33PM 41.4050 -75.0472 291° West 363 418 23,900 840 Climbing New York Center
12:34PM 41.3453 -75.1006 291° West  Level FlightAware Approximate
12:35PM 41.4961 -75.1194 329° Northwest 375 432 24,700  Level New York Center
12:36PM 41.5478 -75.2419 299° West 366 421 25,000 120 Climbing New York Center
12:36PM 41.6014 -75.3647 300° West 372 428 25,000 300 Level New York Center
12:37PM 41.6528 -75.4822 300° West 377 434 25,700 780 Climbing New York Center
12:38PM 41.7083 -75.6056 301° West 377 434 26,600 960 Climbing New York Center
12:40PM 41.7619 -75.7206 302° West 377 434 27,700 960 Climbing New York Center
12:41PM 41.8025 -75.8433 294° West 372 428 28,600 780 Climbing New York Center
12:41PM 41.8322 -75.9764 287° West 367 422 29,300 660 Climbing New York Center
12:42PM 41.8594 -76.1094 285° West 367 422 29,900 540 Climbing New York Center
12:43PM 41.8869 -76.2397 286° West 367 422 30,500 540 Climbing New York Center
12:45PM 41.9147 -76.3592 287° West 367 422 31,100 480 Climbing New York Center
12:46PM 41.9711 -76.6308 286° West 379 436 32,000 300 Climbing Cleveland Center
12:47PM 41.9986 -76.7606 286° West 369 425 32,000  Level Cleveland Center
12:48PM 42.0256 -76.8875 286° West 364 419 32,000  Level Cleveland Center
12:49PM 42.0506 -77.0147 285° West 359 413 32,000  Level Cleveland Center
12:50PM 42.0775 -77.1419 286° West 359 413 32,000  Level Cleveland Center
12:51PM 42.0994 -77.2528 285° West 359 413 32,000  Level Cleveland Center
12:52PM 42.1258 -77.3803 286° West 359 413 32,000  Level Cleveland Center
12:53PM 42.1525 -77.5078 286° West 359 413 32,000  Level Cleveland Center
12:54PM 42.1764 -77.6272 285° West 354 407 32,000  Level Cleveland Center
12:55PM 42.2025 -77.7550 285° West 354 407 32,000  Level Cleveland Center
12:56PM 42.2264 -77.8828 284° West 354 407 32,000  Level Cleveland Center
12:57PM 42.2500 -78.0081 284° West 354 407 32,000  Level Cleveland Center
12:58PM 42.2778 -78.1333 287° West 354 407 32,000  Level Cleveland Center
12:59PM 42.3014 -78.2614 284° West 354 407 32,000  Level Cleveland Center
01:00PM 42.3247 -78.3869 284° West 354 407 32,000  Level Cleveland Center
01:01PM 42.3500 -78.5125 285° West 354 407 32,000  Level Cleveland Center
01:02PM 42.3731 -78.6383 284° West 354 407 32,000  Level Cleveland Center
01:03PM 42.3981 -78.7669 285° West 354 407 32,000  Level Cleveland Center
01:04PM 42.4208 -78.8928 284° West 354 407 32,000  Level Cleveland Center
01:05PM 42.4433 -79.0217 283° West 354 407 32,000  Level Cleveland Center
01:06PM 42.4700 -79.1533 285° West 354 407 32,000  Level Cleveland Center
01:07PM 42.4903 -79.2822 282° West 354 407 32,000  Level Cleveland Center
01:08PM 42.4981 -79.4117 275° West 354 407 32,000  Level Cleveland Center
01:09PM 42.5056 -79.5494 274° West 354 407 32,000  Level Cleveland Center
01:10PM 42.5108 -79.6847 273° West 354 407 32,000  Level Cleveland Center
01:11PM 42.5181 -79.8142 274° West 354 407 32,000  Level Cleveland Center
01:12PM 42.5294 -79.9519 276° West 359 413 32,000  Level Cleveland Center
01:13PM 42.5300 -80.0872 270° West 364 419 32,000  Level Cleveland Center
01:14PM 42.5306 -80.2225 270° West 364 419 32,000  Level Cleveland Center
01:15PM 42.4786 -80.3411 239° Southwest 356 410 32,000  Level Cleveland Center
01:16PM 42.4289 -80.4622 241° Southwest 373 429 32,000  Level Cleveland Center
01:17PM 42.4497 -80.5858 283° West 334 384 32,000  Level Cleveland Center
01:18PM 42.5081 -80.6958 306° West 332 382 32,000  Level Cleveland Center
01:19PM 42.5456 -80.8142 293° West 344 396 32,000  Level Cleveland Center
01:20PM 42.5639 -80.9581 280° West 346 398 32,000  Level Cleveland Center
01:21PM 42.5694 -81.0964 273° West 358 412 32,000  Level Cleveland Center
01:22PM 42.5731 -81.2231 272° West 358 412 32,000  Level Cleveland Center
01:23PM 42.5764 -81.3558 272° West 353 406 32,000  Level Cleveland Center
01:24PM 42.5881 -81.4856 277° West 348 400 32,000  Level Cleveland Center
01:25PM 42.6139 -81.6131 285° West 353 406 32,000  Level Cleveland Center
01:26PM 42.6336 -81.7403 282° West 353 406 32,000  Level Cleveland Center
01:27PM 42.6572 -81.8678 284° West 353 406 32,000  Level Cleveland Center
01:28PM 42.6786 -81.9925 283° West 353 406 32,000  Level Cleveland Center
01:29PM 42.7000 -82.1200 283° West 353 406 32,000  Level Cleveland Center
01:30PM 42.7211 -82.2478 283° West 353 406 32,000  Level Cleveland Center
01:31PM 42.7442 -82.3756 284° West 353 406 32,000  Level Cleveland Center
01:32PM 42.7653 -82.5033 283° West 353 406 32,000  Level Cleveland Center
01:33PM 42.7858 -82.6314 282° West 353 406 32,000  Level Cleveland Center
01:34PM 42.8086 -82.7594 284° West 353 406 32,000  Level Cleveland Center
01:35PM 42.8269 -82.8847 281° West 353 406 32,000  Level Cleveland Center
01:36PM 42.8472 -83.0131 282° West 353 406 32,000  Level Cleveland Center
01:37PM 42.8506 -83.1461 272° West 353 406 32,000  Level Cleveland Center
01:38PM 42.8475 -83.2792 268° West 348 400 32,000  Level Cleveland Center
01:39PM 42.8467 -83.4094 270° West 348 400 32,000  Level Cleveland Center
01:40PM 42.8433 -83.5422 268° West 348 400 32,000  Level Cleveland Center
01:41PM 42.8397 -83.6725 268° West 348 400 32,000  Level Cleveland Center
01:42PM 42.8361 -83.8025 268° West 348 400 32,000  Level Cleveland Center
01:43PM 42.8325 -83.9356 268° West 348 400 32,000  Level Cleveland Center
01:44PM 42.8308 -84.0572 269° West 348 400 32,000  Level Cleveland Center
01:45PM 42.8269 -84.1844 268° West 348 400 32,000  Level Cleveland Center
01:46PM 42.8228 -84.3144 268° West 348 400 32,000  Level Cleveland Center
01:48PM 42.8200 -84.5339 269° West 344 396 32,000  Level Chicago Center
01:49PM 42.8156 -84.6650 267° West 348 400 32,000  Level Chicago Center
01:50PM 42.8108 -84.8208 268° West 345 397 32,000  Level Chicago Center
01:51PM 42.8069 -84.9506 268° West 345 397 32,000  Level Chicago Center
01:52PM 42.8022 -85.0828 267° West 349 402 32,000  Level Chicago Center
01:53PM 42.7981 -85.2133 268° West 346 398 32,000  Level Chicago Center
01:54PM 42.7933 -85.3433 267° West 345 397 32,000  Level Chicago Center
01:55PM 42.7881 -85.4744 267° West 346 398 32,000  Level Chicago Center
01:56PM 42.7672 -85.6025 258° West 347 399 32,000 -1,140 Level Chicago Center
01:57PM 42.7400 -85.7619 257° West 359 413 29,700 -2,400 Descending Chicago Center
01:58PM 42.7161 -85.8961 256° West 363 418 27,100 -2,460 Descending Chicago Center
01:59PM 42.6931 -86.0197 256° West 341 392 24,700 -2,280 Descending Chicago Center
02:00PM 42.6703 -86.1414 256° West 332 382 22,400 -2,280 Descending Chicago Center
02:02PM 42.6467 -86.2633 255° West 332 382 20,100 -1,920 Descending Chicago Center
02:03PM 42.6253 -86.3814 256° West 323 372 18,500 -1,500 Descending Chicago Center
02:04PM 42.6022 -86.5017 255° West 329 379 17,100 -1,380 Descending Chicago Center
02:05PM 42.5797 -86.6231 256° West 332 382 15,700 -1,500 Descending Chicago Center
02:06PM 42.5528 -86.7639 255° West 323 372 14,000 -1,500 Descending Chicago Center
02:07PM 42.5219 -86.8733 249° West 315 362 12,600 -1,380 Descending Chicago Center
02:08PM 42.4917 -86.9839 250° West 313 360 11,200 -1,260 Descending Chicago Center
02:09PM 42.4611 -87.0883 248° West 301 346 10,000 -1,020 Descending Chicago Center
02:10PM 42.4369 -87.1797 250° West 264 304 9,200 -540 Descending Chicago Center
02:11PM 42.4214 -87.2697 257° West 248 285 9,000 -480 Descending Chicago Center
02:12PM 42.3981 -87.3761 253° West 249 287 8,300 -660 Descending Chicago Center
02:13PM 42.3756 -87.4678 252° West 248 285 7,700 -540 Descending Chicago Center
02:14PM 42.3278 -87.5267 222° Southwest 244 281 7,200 -360 Descending Chicago Center
02:15PM 42.2828 -87.5797 221° Southwest 216 249 7,000 -120 Descending Chicago Center
02:16PM 42.2422 -87.6264 220° Southwest 196 226 7,000 -540 Level Chicago Center
02:17PM 42.1997 -87.6722 219° Southwest 198 228 6,000 -1,140 Descending Chicago Center
02:18PM 42.1503 -87.7278 220° Southwest 194 223 4,700 -1,140 Descending Chicago Center
02:19PM 42.1167 -87.7667 221° Southwest 166 191 3,700 -960 Descending Chicago TRACON